createdAt,value
2023-08-11T00:00:05.773Z,46.50
2023-08-11T00:03:15.713Z,46.44
2023-08-11T00:06:19.085Z,46.35
2023-08-11T00:09:23.670Z,46.63
2023-08-11T00:12:26.705Z,46.44
2023-08-11T00:15:32.223Z,46.33
2023-08-11T00:18:36.529Z,46.65
2023-08-11T00:21:39.489Z,46.91
2023-08-11T00:24:42.446Z,46.90
2023-08-11T00:27:45.363Z,46.83
2023-08-11T00:30:48.291Z,46.92
2023-08-11T00:33:53.784Z,46.66
2023-08-11T00:36:57.056Z,46.83
2023-08-11T00:40:00.417Z,46.59
2023-08-11T00:43:03.404Z,46.60
2023-08-11T00:46:11.623Z,46.62
2023-08-11T00:49:16.203Z,46.64
2023-08-11T00:52:20.061Z,46.41
2023-08-11T00:55:24.181Z,46.74
2023-08-11T00:58:27.336Z,46.31
2023-08-11T01:01:31.100Z,46.47
2023-08-11T01:04:35.692Z,46.52
2023-08-11T01:07:45.886Z,46.37
2023-08-11T01:10:54.725Z,46.50
2023-08-11T01:14:05.846Z,46.68
2023-08-11T01:17:15.049Z,46.69
2023-08-11T01:20:21.100Z,46.72
2023-08-11T01:23:26.429Z,46.68
2023-08-11T01:26:29.362Z,46.73
2023-08-11T01:29:32.617Z,46.67
2023-08-11T01:32:35.610Z,46.71
2023-08-11T01:35:41.963Z,46.49
2023-08-11T01:38:47.984Z,46.64
2023-08-11T01:41:51.051Z,46.64
2023-08-11T01:44:54.767Z,46.63
2023-08-11T01:47:58.376Z,46.63
2023-08-11T01:51:01.467Z,46.53
2023-08-11T01:54:06.011Z,46.48
2023-08-11T01:57:09.552Z,46.58
2023-08-11T02:00:14.415Z,46.37
2023-08-11T02:03:17.936Z,46.42
2023-08-11T02:06:21.027Z,46.38
2023-08-11T02:09:25.421Z,46.51
2023-08-11T02:12:28.493Z,46.51
2023-08-11T02:15:31.458Z,46.64
2023-08-11T02:18:34.690Z,46.67
2023-08-11T02:21:39.356Z,46.74
2023-08-11T02:24:43.647Z,46.62
2023-08-11T02:27:46.637Z,46.33
2023-08-11T02:30:49.781Z,46.50
2023-08-11T02:33:52.908Z,46.42
2023-08-11T02:36:55.964Z,46.40
2023-08-11T02:40:00.391Z,46.50
2023-08-11T02:43:03.417Z,46.46
2023-08-11T02:46:08.085Z,46.37
2023-08-11T02:49:11.428Z,46.43
2023-08-11T02:52:14.684Z,46.42
2023-08-11T02:55:19.063Z,46.63
2023-08-11T02:58:22.629Z,46.68
2023-08-11T03:01:25.634Z,46.60
2023-08-11T03:04:28.733Z,46.41
2023-08-11T03:07:32.323Z,46.62
2023-08-11T03:10:46.573Z,46.49
2023-08-11T03:13:55.248Z,46.61
2023-08-11T03:16:58.342Z,46.46
2023-08-11T03:20:01.389Z,46.49
2023-08-11T03:23:05.363Z,46.83
2023-08-11T03:26:10.724Z,46.64
2023-08-11T03:29:14.379Z,46.73
2023-08-11T03:32:19.523Z,46.65
2023-08-11T03:35:23.762Z,46.68
2023-08-11T03:38:28.296Z,46.59
2023-08-11T03:41:32.576Z,46.70
2023-08-11T03:44:35.617Z,46.79
2023-08-11T03:47:40.105Z,46.90
2023-08-11T03:50:44.100Z,46.84
2023-08-11T03:53:47.065Z,47.02
2023-08-11T03:56:52.012Z,46.92
2023-08-11T03:59:54.981Z,47.10
2023-08-11T04:02:58.199Z,47.08
2023-08-11T04:06:02.059Z,46.99
2023-08-11T04:09:05.327Z,47.03
2023-08-11T04:12:10.560Z,47.09
2023-08-11T04:15:13.878Z,47.05
2023-08-11T04:18:17.045Z,47.00
2023-08-11T04:21:20.016Z,47.07
2023-08-11T04:24:23.371Z,46.96
2023-08-11T04:27:27.758Z,47.03
2023-08-11T04:30:30.801Z,47.08
2023-08-11T04:33:36.095Z,47.25
2023-08-11T04:36:39.308Z,47.34
2023-08-11T04:39:42.804Z,47.33
2023-08-11T04:42:47.984Z,47.32
2023-08-11T04:45:56.376Z,47.32
2023-08-11T04:48:59.968Z,47.23
2023-08-11T04:52:04.858Z,47.35
2023-08-11T04:55:09.130Z,47.48
2023-08-11T04:58:14.498Z,47.41
2023-08-11T05:01:17.790Z,47.43
2023-08-11T05:04:20.788Z,47.37
2023-08-11T05:07:23.716Z,47.35
2023-08-11T05:10:26.665Z,47.62
2023-08-11T05:13:31.018Z,47.64
2023-08-11T05:16:34.291Z,47.62
2023-08-11T05:19:37.900Z,47.46
2023-08-11T05:22:41.022Z,47.59
2023-08-11T05:25:44.132Z,47.72
2023-08-11T05:28:48.459Z,47.67
2023-08-11T05:31:51.647Z,47.74
2023-08-11T05:34:56.731Z,47.89
2023-08-11T05:38:00.492Z,47.73
2023-08-11T05:41:04.286Z,47.65
2023-08-11T05:44:09.558Z,47.73
2023-08-11T05:47:13.091Z,47.71
2023-08-11T05:50:16.172Z,47.49
2023-08-11T05:53:19.252Z,47.32
2023-08-11T05:56:22.257Z,47.28
2023-08-11T05:59:26.624Z,47.61
2023-08-11T06:02:29.601Z,47.78
2023-08-11T06:05:32.589Z,47.95
2023-08-11T06:08:35.603Z,47.92
2023-08-11T06:11:38.609Z,47.82
2023-08-11T06:14:42.943Z,47.82
2023-08-11T06:17:50.478Z,47.61
2023-08-11T06:20:54.287Z,47.59
2023-08-11T06:23:57.227Z,47.45
2023-08-11T06:27:00.169Z,47.72
2023-08-11T06:30:05.548Z,47.96
2023-08-11T06:33:08.592Z,48.16
2023-08-11T06:36:11.530Z,47.85
2023-08-11T06:39:14.651Z,48.03
2023-08-11T06:42:17.557Z,48.25
2023-08-11T06:45:32.461Z,48.24
2023-08-11T06:48:35.446Z,48.19
2023-08-11T06:51:38.490Z,48.02
2023-08-11T06:54:41.991Z,48.17
2023-08-11T06:57:45.294Z,48.27
2023-08-11T07:00:49.672Z,48.19
2023-08-11T07:03:53.165Z,48.15
2023-08-11T07:06:56.442Z,48.14
2023-08-11T07:10:03.390Z,48.16
2023-08-11T07:13:07.164Z,48.27
2023-08-11T07:16:11.603Z,48.04
2023-08-11T07:19:14.595Z,48.23
2023-08-11T07:22:18.366Z,48.12
2023-08-11T07:25:21.351Z,48.06
2023-08-11T07:28:24.385Z,48.35
2023-08-11T07:31:28.776Z,48.30
2023-08-11T07:34:31.829Z,48.31
2023-08-11T07:37:35.161Z,48.29
2023-08-11T07:40:38.105Z,48.57
2023-08-11T07:43:41.204Z,48.71
2023-08-11T07:46:45.648Z,48.58
2023-08-11T07:49:48.719Z,48.62
2023-08-11T07:52:51.665Z,48.80
2023-08-11T07:55:54.629Z,48.98
2023-08-11T07:58:57.532Z,48.83
2023-08-11T08:02:02.134Z,48.82
2023-08-11T08:05:12.296Z,48.83
2023-08-11T08:08:16.851Z,48.91
2023-08-11T08:11:20.528Z,48.63
2023-08-11T08:14:23.495Z,48.93
2023-08-11T08:17:28.065Z,49.05
2023-08-11T08:20:32.374Z,48.93
2023-08-11T08:23:35.636Z,48.96
2023-08-11T08:26:38.973Z,48.96
2023-08-11T08:29:41.961Z,48.89
2023-08-11T08:32:46.294Z,48.95
2023-08-11T08:35:49.337Z,49.16
2023-08-11T08:38:52.276Z,49.02
2023-08-11T08:41:57.126Z,49.11
2023-08-11T08:45:00.606Z,49.12
2023-08-11T08:48:09.885Z,49.10
2023-08-11T08:51:13.885Z,49.07
2023-08-11T08:54:17.085Z,48.87
2023-08-11T08:57:21.784Z,48.80
2023-08-11T09:00:25.284Z,48.77
2023-08-11T09:03:30.501Z,48.72
2023-08-11T09:06:33.856Z,48.60
2023-08-11T09:09:36.843Z,48.82
2023-08-11T09:12:39.897Z,48.58
2023-08-11T09:15:43.393Z,48.15
2023-08-11T09:18:48.290Z,48.18
2023-08-11T09:21:51.581Z,48.19
2023-08-11T09:24:56.989Z,48.16
2023-08-11T09:28:00.744Z,48.40
2023-08-11T09:31:03.788Z,48.17
2023-08-11T09:34:16.275Z,48.02
2023-08-11T09:37:19.508Z,48.16
2023-08-11T09:40:23.550Z,48.01
2023-08-11T09:43:26.542Z,48.01
2023-08-11T09:46:29.860Z,48.18
2023-08-11T09:49:34.274Z,47.83
2023-08-11T09:52:38.391Z,47.03
2023-08-11T09:55:42.940Z,47.27
2023-08-11T09:58:49.883Z,47.10
2023-08-11T10:01:55.435Z,46.92
2023-08-11T10:05:05.410Z,46.87
2023-08-11T10:08:11.602Z,46.56
2023-08-11T10:11:15.679Z,46.80
2023-08-11T10:14:23.397Z,46.91
2023-08-11T10:17:27.198Z,46.88
2023-08-11T10:20:32.421Z,46.91
2023-08-11T10:23:36.008Z,47.07
2023-08-11T10:26:39.829Z,46.95
2023-08-11T10:29:48.201Z,46.73
2023-08-11T10:32:57.893Z,46.59
2023-08-11T10:36:03.500Z,46.89
2023-08-11T10:39:08.369Z,48.02
2023-08-11T10:42:13.830Z,47.73
2023-08-11T10:45:17.628Z,47.62
2023-08-11T10:48:24.222Z,47.35
2023-08-11T10:51:33.693Z,48.32
2023-08-11T10:54:36.765Z,47.39
2023-08-11T10:57:39.696Z,47.62
2023-08-11T11:00:43.165Z,49.31
2023-08-11T11:03:50.398Z,50.38
2023-08-11T11:06:55.185Z,49.72
2023-08-11T11:09:58.112Z,49.23
2023-08-11T11:13:01.002Z,50.43
2023-08-11T11:16:04.025Z,51.07
2023-08-11T11:19:09.128Z,50.38
2023-08-11T11:22:15.297Z,48.43
2023-08-11T11:25:19.665Z,48.26
2023-08-11T11:28:22.807Z,48.21
2023-08-11T11:31:27.840Z,47.58
2023-08-11T11:34:31.018Z,47.74
2023-08-11T11:37:36.157Z,47.84
2023-08-11T11:40:39.096Z,47.60
2023-08-11T11:43:42.088Z,47.24
2023-08-11T11:46:45.090Z,47.43
2023-08-11T11:49:55.288Z,47.47
2023-08-11T11:52:59.624Z,47.28
2023-08-11T11:56:04.405Z,47.35
2023-08-11T11:59:08.000Z,47.30
2023-08-11T12:02:14.287Z,47.94
2023-08-11T12:05:18.164Z,48.01
2023-08-11T12:08:26.026Z,48.28
2023-08-11T12:11:31.734Z,48.02
2023-08-11T12:14:35.271Z,47.78
2023-08-11T12:17:38.756Z,47.83
2023-08-11T12:20:42.536Z,47.63
2023-08-11T12:23:47.008Z,47.72
2023-08-11T12:26:50.193Z,47.70
2023-08-11T12:29:53.115Z,48.04
2023-08-11T12:32:56.130Z,47.91
2023-08-11T12:35:59.408Z,47.48
2023-08-11T12:39:04.540Z,47.78
2023-08-11T12:42:07.977Z,47.91
2023-08-11T12:45:12.600Z,47.76
2023-08-11T12:48:16.568Z,47.76
2023-08-11T12:51:19.678Z,48.09
2023-08-11T12:54:24.026Z,47.90
2023-08-11T12:57:26.956Z,47.85
2023-08-11T13:00:30.463Z,47.82
2023-08-11T13:03:33.777Z,47.51
2023-08-11T13:06:36.805Z,48.20
2023-08-11T13:09:41.076Z,49.44
2023-08-11T13:12:46.019Z,49.30
2023-08-11T13:15:49.081Z,48.47
2023-08-11T13:19:01.861Z,48.11
2023-08-11T13:22:06.822Z,48.18
2023-08-11T13:25:12.486Z,48.29
2023-08-11T13:28:15.618Z,48.39
2023-08-11T13:31:18.527Z,48.32
2023-08-11T13:34:21.639Z,48.32
2023-08-11T13:37:24.550Z,48.08
2023-08-11T13:40:29.064Z,48.56
2023-08-11T13:43:36.688Z,48.44
2023-08-11T13:46:40.070Z,48.69
2023-08-11T13:49:43.014Z,48.79
2023-08-11T13:52:45.960Z,49.00
2023-08-11T13:55:51.387Z,48.48
2023-08-11T13:58:54.324Z,48.81
2023-08-11T14:01:57.293Z,48.55
2023-08-11T14:05:00.374Z,48.47
2023-08-11T14:08:03.572Z,48.29
2023-08-11T14:11:08.004Z,48.46
2023-08-11T14:14:10.934Z,48.49
2023-08-11T14:17:13.933Z,49.11
2023-08-11T14:20:16.905Z,48.96
2023-08-11T14:23:19.964Z,48.71
2023-08-11T14:26:24.267Z,48.41
2023-08-11T14:29:27.341Z,48.43
2023-08-11T14:32:30.554Z,48.41
2023-08-11T14:35:33.735Z,48.72
2023-08-11T14:38:36.671Z,48.56
2023-08-11T14:41:40.985Z,48.82
2023-08-11T14:44:44.092Z,49.00
2023-08-11T14:47:47.002Z,48.88
2023-08-11T14:50:49.998Z,49.03
2023-08-11T14:53:52.879Z,48.87
2023-08-11T14:56:57.872Z,48.90
2023-08-11T15:00:00.838Z,48.71
2023-08-11T15:03:03.982Z,48.83
2023-08-11T15:06:07.405Z,48.64
2023-08-11T15:09:10.514Z,49.06
2023-08-11T15:12:14.877Z,48.94
2023-08-11T15:15:17.826Z,48.89
2023-08-11T15:18:23.747Z,48.63
2023-08-11T15:21:26.848Z,48.95
2023-08-11T15:24:29.934Z,48.99
2023-08-11T15:27:34.422Z,49.40
2023-08-11T15:30:37.379Z,48.97
2023-08-11T15:33:40.362Z,49.07
2023-08-11T15:36:43.319Z,48.98
2023-08-11T15:39:46.401Z,49.24
2023-08-11T15:42:50.680Z,48.84
2023-08-11T15:45:54.758Z,48.72
2023-08-11T15:48:58.841Z,48.84
2023-08-11T15:52:01.800Z,48.55
2023-08-11T15:55:04.903Z,48.66
2023-08-11T15:58:09.824Z,48.58
2023-08-11T16:01:12.787Z,48.88
2023-08-11T16:04:15.867Z,48.88
2023-08-11T16:07:18.786Z,49.11
2023-08-11T16:10:21.784Z,49.29
2023-08-11T16:13:26.452Z,49.02
2023-08-11T16:16:29.560Z,49.07
2023-08-11T16:19:33.668Z,48.99
2023-08-11T16:22:36.567Z,48.96
2023-08-11T16:25:39.508Z,48.92
2023-08-11T16:28:44.562Z,49.11
2023-08-11T16:31:48.628Z,49.02
2023-08-11T16:34:51.688Z,49.22
2023-08-11T16:37:54.741Z,49.39
2023-08-11T16:40:58.236Z,49.64
2023-08-11T16:44:02.597Z,49.66
2023-08-11T16:47:05.648Z,49.68
2023-08-11T16:50:09.904Z,49.48
2023-08-11T16:53:13.797Z,49.61
2023-08-11T16:56:17.538Z,49.59
2023-08-11T16:59:21.858Z,49.47
2023-08-11T17:02:24.937Z,49.60
2023-08-11T17:05:27.991Z,49.72
2023-08-11T17:08:31.637Z,49.40
2023-08-11T17:11:34.604Z,49.41
2023-08-11T17:14:38.899Z,49.31
2023-08-11T17:17:42.322Z,49.13
2023-08-11T17:20:45.475Z,49.28
2023-08-11T17:23:49.008Z,49.51
2023-08-11T17:26:51.905Z,49.47
2023-08-11T17:29:56.185Z,49.74
2023-08-11T17:32:59.788Z,49.54
2023-08-11T17:36:02.948Z,49.83
2023-08-11T17:39:07.321Z,49.81
2023-08-11T17:42:10.473Z,49.94
2023-08-11T17:45:15.291Z,49.97
2023-08-11T17:48:18.317Z,49.69
2023-08-11T17:51:21.829Z,49.71
2023-08-11T17:54:24.800Z,49.77
2023-08-11T17:57:27.718Z,49.79
2023-08-11T18:00:32.179Z,49.96
2023-08-11T18:03:35.669Z,49.73
2023-08-11T18:06:38.552Z,49.83
2023-08-11T18:09:41.626Z,49.47
2023-08-11T18:12:44.585Z,49.54
2023-08-11T18:15:48.927Z,50.16
2023-08-11T18:18:51.886Z,50.45
2023-08-11T18:21:54.818Z,50.55
2023-08-11T18:24:57.901Z,50.23
2023-08-11T18:28:00.841Z,49.93
2023-08-11T18:31:05.664Z,50.20
2023-08-11T18:34:08.612Z,50.18
2023-08-11T18:37:11.730Z,50.19
2023-08-11T18:40:15.677Z,50.06
2023-08-11T18:43:18.695Z,50.24
2023-08-11T18:46:23.036Z,50.20
2023-08-11T18:49:28.258Z,50.35
2023-08-11T18:52:31.536Z,50.08
2023-08-11T18:55:34.466Z,50.10
2023-08-11T18:58:37.347Z,50.38
2023-08-11T19:01:41.887Z,50.38
2023-08-11T19:04:45.194Z,50.39
2023-08-11T19:07:48.144Z,50.35
2023-08-11T19:10:51.110Z,50.59
2023-08-11T19:13:54.538Z,50.91
2023-08-11T19:16:58.872Z,50.72
2023-08-11T19:20:03.008Z,50.56
2023-08-11T19:23:06.100Z,50.80
2023-08-11T19:26:09.026Z,50.63
2023-08-11T19:29:13.439Z,50.69
2023-08-11T19:32:18.309Z,50.70
2023-08-11T19:35:21.300Z,50.69
2023-08-11T19:38:24.191Z,51.03
2023-08-11T19:41:27.125Z,50.98
2023-08-11T19:44:30.177Z,51.03
2023-08-11T19:47:34.490Z,50.88
2023-08-11T19:50:37.650Z,50.99
2023-08-11T19:53:40.660Z,51.06
2023-08-11T19:56:44.069Z,51.25
2023-08-11T19:59:47.215Z,51.31
2023-08-11T20:02:51.503Z,51.17
2023-08-11T20:05:54.479Z,51.29
2023-08-11T20:08:57.749Z,51.41
2023-08-11T20:12:00.629Z,51.26
2023-08-11T20:15:03.568Z,51.53
2023-08-11T20:18:07.952Z,51.37
2023-08-11T20:21:11.068Z,51.55
2023-08-11T20:24:14.055Z,51.34
2023-08-11T20:27:17.049Z,51.42
2023-08-11T20:30:20.182Z,51.63
2023-08-11T20:33:24.468Z,51.71
2023-08-11T20:36:27.837Z,51.68
2023-08-11T20:39:30.805Z,51.67
2023-08-11T20:42:33.955Z,51.43
2023-08-11T20:45:36.924Z,51.58
2023-08-11T20:48:41.242Z,51.64
2023-08-11T20:51:45.018Z,51.50
2023-08-11T20:54:48.635Z,51.63
2023-08-11T20:57:51.561Z,51.38
2023-08-11T21:00:54.535Z,51.39
2023-08-11T21:03:58.916Z,51.60
2023-08-11T21:07:01.922Z,51.87
2023-08-11T21:10:07.317Z,51.85
2023-08-11T21:13:10.286Z,51.60
2023-08-11T21:16:13.231Z,51.72
2023-08-11T21:19:17.538Z,51.72
2023-08-11T21:22:20.702Z,51.99
2023-08-11T21:25:23.586Z,51.63
2023-08-11T21:28:26.561Z,51.76
2023-08-11T21:31:29.571Z,51.74
2023-08-11T21:34:33.935Z,51.74
2023-08-11T21:37:36.851Z,51.67
2023-08-11T21:40:39.773Z,51.94
2023-08-11T21:43:42.803Z,51.47
2023-08-11T21:46:45.818Z,51.93
2023-08-11T21:49:50.141Z,51.71
2023-08-11T21:52:53.188Z,51.73
2023-08-11T21:55:56.328Z,51.59
2023-08-11T21:58:59.244Z,51.73
2023-08-11T22:02:02.205Z,51.82
2023-08-11T22:05:07.030Z,51.92
2023-08-11T22:08:10.055Z,51.74
2023-08-11T22:11:25.972Z,51.64
2023-08-11T22:14:36.404Z,51.73
2023-08-11T22:17:39.490Z,51.77
2023-08-11T22:20:44.277Z,51.79
2023-08-11T22:23:47.206Z,51.69
2023-08-11T22:26:50.468Z,51.69
2023-08-11T22:29:54.090Z,51.80
2023-08-11T22:32:57.107Z,51.71
2023-08-11T22:36:01.455Z,51.87
2023-08-11T22:39:04.968Z,51.75
2023-08-11T22:42:08.068Z,51.98
2023-08-11T22:45:11.221Z,51.88
2023-08-11T22:48:14.198Z,51.79
2023-08-11T22:51:18.540Z,51.73
2023-08-11T22:54:21.477Z,51.64
2023-08-11T22:57:26.338Z,51.78
2023-08-11T23:00:29.300Z,51.94
2023-08-11T23:03:32.287Z,51.75
2023-08-11T23:06:36.653Z,51.87
2023-08-11T23:09:39.572Z,51.78
2023-08-11T23:12:42.536Z,51.92
2023-08-11T23:15:45.777Z,51.97
2023-08-11T23:18:48.779Z,51.98
2023-08-11T23:21:53.112Z,52.09
2023-08-11T23:24:56.093Z,51.90
2023-08-11T23:27:58.969Z,51.87
2023-08-11T23:31:01.887Z,51.82
2023-08-11T23:34:05.241Z,51.97
2023-08-11T23:37:09.876Z,52.03
2023-08-11T23:40:13.775Z,52.00
2023-08-11T23:43:16.893Z,52.05
2023-08-11T23:46:19.852Z,52.08
2023-08-11T23:49:22.740Z,51.84
2023-08-11T23:52:27.703Z,51.98
2023-08-11T23:55:30.992Z,51.88
2023-08-11T23:58:33.916Z,51.97
